地図

経路データ

SID SEASON NUMBER BASIN SUBBASIN NAME ISO_TIME NATURE LAT LON WMO_WIND WMO_PRES WMO_AGENCY TRACK_TYPE DIST2LAND LANDFALL IFLAG USA_AGENCY USA_ATCF_ID USA_LAT USA_LON USA_RECORD USA_STATUS USA_WIND USA_PRES USA_SSHS USA_R34_NE USA_R34_SE USA_R34_SW USA_R34_NW USA_R50_NE USA_R50_SE USA_R50_SW USA_R50_NW USA_R64_NE USA_R64_SE USA_R64_SW USA_R64_NW USA_POCI USA_ROCI USA_RMW USA_EYE TOKYO_LAT TOKYO_LON TOKYO_GRADE TOKYO_WIND TOKYO_PRES TOKYO_R50_DIR TOKYO_R50_LONG TOKYO_R50_SHORT TOKYO_R30_DIR TOKYO_R30_LONG TOKYO_R30_SHORT TOKYO_LAND CMA_LAT CMA_LON CMA_CAT CMA_WIND CMA_PRES HKO_LAT HKO_LON HKO_CAT HKO_WIND HKO_PRES NEWDELHI_LAT NEWDELHI_LON NEWDELHI_GRADE NEWDELHI_WIND NEWDELHI_PRES NEWDELHI_CI NEWDELHI_DP NEWDELHI_POCI REUNION_LAT REUNION_LON REUNION_TYPE REUNION_WIND REUNION_PRES REUNION_TNUM REUNION_CI REUNION_RMW REUNION_R34_NE REUNION_R34_SE REUNION_R34_SW REUNION_R34_NW REUNION_R50_NE REUNION_R50_SE REUNION_R50_SW REUNION_R50_NW REUNION_R64_NE REUNION_R64_SE REUNION_R64_SW REUNION_R64_NW BOM_LAT BOM_LON BOM_TYPE BOM_WIND BOM_PRES BOM_TNUM BOM_CI BOM_RMW BOM_R34_NE BOM_R34_SE BOM_R34_SW BOM_R34_NW BOM_R50_NE BOM_R50_SE BOM_R50_SW BOM_R50_NW BOM_R64_NE BOM_R64_SE BOM_R64_SW BOM_R64_NW BOM_ROCI BOM_POCI BOM_EYE BOM_POS_METHOD BOM_PRES_METHOD NADI_LAT NADI_LON NADI_CAT NADI_WIND NADI_PRES WELLINGTON_LAT WELLINGTON_LON WELLINGTON_WIND WELLINGTON_PRES DS824_LAT DS824_LON DS824_STAGE DS824_WIND DS824_PRES TD9636_LAT TD9636_LON TD9636_STAGE TD9636_WIND TD9636_PRES TD9635_LAT TD9635_LON TD9635_WIND TD9635_PRES TD9635_ROCI NEUMANN_LAT NEUMANN_LON NEUMANN_CLASS NEUMANN_WIND NEUMANN_PRES MLC_LAT MLC_LON MLC_CLASS MLC_WIND MLC_PRES USA_GUST BOM_GUST BOM_GUST_PER REUNION_GUST REUNION_GUST_PER USA_SEAHGT USA_SEARAD_NE USA_SEARAD_SE USA_SEARAD_SW USA_SEARAD_NW STORM_SPEED STORM_DIR
1887262N15125 1887 50 WP MM NOT_NAMED 1887-09-18 16:00:00 NR 14.5000 124.500 main 59 57 __________O___ -1 14.5000 124.500 7 20 296
1887262N15125 1887 50 WP MM NOT_NAMED 1887-09-18 18:00:00 NR 14.7927 123.875 main 92 95 __________P___ -1 14.7927 123.875 7 20 296
1887262N15125 1887 50 WP MM NOT_NAMED 1887-09-18 21:00:00 NR 15.2142 122.952 main 112 46 __________P___ -1 15.2142 122.952 7 19 295
1887262N15125 1887 50 WP MM NOT_NAMED 1887-09-19 00:00:00 NR 15.5945 122.068 main 46 0 __________P___ -1 15.5945 122.068 7 18 293
1887262N15125 1887 50 WP MM NOT_NAMED 1887-09-19 03:00:00 NR 15.9119 121.252 main 0 0 __________P___ -1 15.9119 121.252 7 17 292
1887262N15125 1887 50 WP MM NOT_NAMED 1887-09-19 04:00:00 NR 16.0000 121.000 main 0 0 __________O___ -1 16.0000 121.000 4 15 289
1887262N15125 1887 50 WP MM NOT_NAMED 1887-09-19 06:00:00 NR 16.1471 120.528 main 0 0 __________P___ -1 16.1471 120.528 4 13 286
1887262N15125 1887 50 WP MM NOT_NAMED 1887-09-19 09:00:00 NR 16.3058 119.891 main 0 0 __________P___ -1 16.3058 119.891 4 12 283
1887262N15125 1887 50 WP MM NOT_NAMED 1887-09-19 12:00:00 NR 16.4097 119.315 main 54 54 __________P___ -1 16.4097 119.315 4 11 279
1887262N15125 1887 50 WP MM NOT_NAMED 1887-09-19 15:00:00 NR 16.4803 118.776 main 109 119 __________P___ -1 16.4803 118.776 4 10 277
1887262N15125 1887 50 WP MM NOT_NAMED 1887-09-19 16:00:00 NR 16.5000 118.600 main 129 129 __________O___ -1 16.5000 118.600 4 11 277
1887262N15125 1887 50 WP MM NOT_NAMED 1887-09-19 18:00:00 NR 16.5450 118.214 main 169 169 __________P___ -1 16.5450 118.214 4 11 276
1887262N15125 1887 50 WP MM NOT_NAMED 1887-09-19 21:00:00 NR 16.5938 117.654 main 223 234 __________P___ -1 16.5938 117.654 4 10 275
1887262N15125 1887 50 WP MM NOT_NAMED 1887-09-20 00:00:00 NR 16.6337 117.128 main 285 285 __________P___ -1 16.6337 117.128 4 10 275
1887262N15125 1887 50 WP MM NOT_NAMED 1887-09-20 03:00:00 NR 16.6803 116.648 main 340 340 __________P___ -1 16.6803 116.648 4 9 276
1887262N15125 1887 50 WP MM NOT_NAMED 1887-09-20 04:00:00 NR 16.7000 116.500 main 350 350 __________O___ -1 16.7000 116.500 4 8 280
1887262N15125 1887 50 WP MM NOT_NAMED 1887-09-20 06:00:00 NR 16.7547 116.227 main 384 384 __________P___ -1 16.7547 116.227 4 8 284
1887262N15125 1887 50 WP MM NOT_NAMED 1887-09-20 09:00:00 NR 16.8499 115.861 main 415 428 __________P___ -1 16.8499 115.861 4 7 287
1887262N15125 1887 50 WP MM NOT_NAMED 1887-09-20 12:00:00 NR 16.9551 115.529 main 461 461 __________P___ -1 16.9551 115.529 4 7 289
1887262N15125 1887 50 WP MM NOT_NAMED 1887-09-20 15:00:00 NR 17.0640 115.208 main 495 495 __________P___ -1 17.0640 115.208 4 7 290
1887262N15125 1887 50 WP MM NOT_NAMED 1887-09-20 16:00:00 NR 17.1000 115.100 main 505 497 __________O___ -1 17.1000 115.100 4 6 283
1887262N15125 1887 50 WP MM NOT_NAMED 1887-09-20 18:00:00 NR 17.1263 114.915 main 497 465 __________P___ -1 17.1263 114.915 4 5 278
1887262N15125 1887 50 WP MM NOT_NAMED 1887-09-20 21:00:00 NR 17.1652 114.639 main 465 439 __________P___ -1 17.1652 114.639 4 6 282
1887262N15125 1887 50 WP MM NOT_NAMED 1887-09-21 00:00:00 NR 17.2459 114.313 main 439 391 __________P___ -1 17.2459 114.313 4 8 289
1887262N15125 1887 50 WP MM NOT_NAMED 1887-09-21 03:00:00 NR 17.4155 113.879 main 391 367 __________P___ -1 17.4155 113.879 4 10 293
1887262N15125 1887 50 WP MM NOT_NAMED 1887-09-21 04:00:00 NR 17.5000 113.700 main 367 319 __________O___ -1 17.5000 113.700 4 13 300
1887262N15125 1887 50 WP MM NOT_NAMED 1887-09-21 06:00:00 NR 17.7358 113.298 main 319 229 __________P___ -1 17.7358 113.298 4 15 303
1887262N15125 1887 50 WP MM NOT_NAMED 1887-09-21 09:00:00 NR 18.1839 112.576 main 229 120 __________P___ -1 18.1839 112.576 4 18 303
1887262N15125 1887 50 WP MM NOT_NAMED 1887-09-21 12:00:00 NR 18.6990 111.721 main 120 15 __________P___ -1 18.6990 111.721 4 20 301
1887262N15125 1887 50 WP MM NOT_NAMED 1887-09-21 15:00:00 NR 19.2290 110.748 main 15 0 __________P___ -1 19.2290 110.748 4 22 299
1887262N15125 1887 50 WP MM NOT_NAMED 1887-09-21 16:00:00 NR 19.4000 110.400 main 0 0 __________O___ -1 19.4000 110.400 4 23 296
1887262N15125 1887 50 WP MM NOT_NAMED 1887-09-21 18:00:00 NR 19.7250 109.671 main 0 0 __________P___ -1 19.7250 109.671 4 23 294
1887262N15125 1887 50 WP MM NOT_NAMED 1887-09-21 21:00:00 NR 20.1743 108.509 main 88 35 __________P___ -1 20.1743 108.509 4 24 291
1887262N15125 1887 50 WP MM NOT_NAMED 1887-09-22 00:00:00 NR 20.5871 107.286 main 35 0 __________P___ -1 20.5871 107.286 4 25 289
1887262N15125 1887 50 WP MM NOT_NAMED 1887-09-22 03:00:00 NR 20.9745 106.025 main 0 0 __________P___ -1 20.9745 106.025 4 25 288
1887262N15125 1887 50 WP MM NOT_NAMED 1887-09-22 04:00:00 NR 21.1000 105.600 main 0 __________O___ -1 21.1000 105.600 7 25 288

デジタル台風データ・検索

IBTrACS Databaseについて

本データベースは、米国NOAAが公開する1842年以降の世界の熱帯低気圧のベストトラックデータアーカイブInternational Best Track Archive for Climate Stewardship (IBTrACS)を、ウェブで閲覧しやすい形式に変換したものです。

最終更新日:2021-12-01